Time;durP1;ratioP1;P1;durP2;ratioP2;P2;SDS_P1;SDS_P2;PMS_P1;PMS_P2;Temp;Humidity;BMP_temperature;BMP_pressure;BME280_temperature;BME280_humidity;BME280_pressure;Samples;Min_cycle;Max_cycle;Signal;HPM_P1;HPM_P2
2022/02/26 00:00:24;;;;;;;2.63;1.27;;;;;;;4.09;85.76;97422.78;5035711;28;20766;-72
2022/02/26 00:02:51;;;;;;;1.17;1.07;;;;;;;3.89;85.58;97415.53;5035549;28;20493;-72
2022/02/26 00:05:18;;;;;;;1.67;1.13;;;;;;;3.67;86.35;97417.97;5036044;28;20201;-72
2022/02/26 00:07:44;;;;;;;1.37;1.07;;;;;;;3.83;86.80;97418.59;5035790;28;20201;-72
2022/02/26 00:10:11;;;;;;;1.73;1.03;;;;;;;3.81;86.13;97417.03;5034311;28;20563;-73
2022/02/26 00:12:38;;;;;;;4.10;1.77;;;;;;;3.65;87.46;97416.41;5035162;28;20221;-73
2022/02/26 00:15:05;;;;;;;1.93;1.67;;;;;;;3.91;87.13;97420.66;5035781;28;20201;-72
2022/02/26 00:17:34;;;;;;;1.10;0.97;;;;;;;4.13;86.88;97424.22;5035720;28;20232;-72
2022/02/26 00:20:01;;;;;;;1.77;1.67;;;;;;;4.00;86.44;97428.66;5035903;28;20578;-72
2022/02/26 00:22:27;;;;;;;1.30;1.20;;;;;;;4.22;85.95;97429.59;5035160;28;20243;-72
2022/02/26 00:24:54;;;;;;;1.67;1.07;;;;;;;4.21;85.79;97431.50;5036154;28;20208;-72
2022/02/26 00:27:20;;;;;;;1.10;0.77;;;;;;;4.28;85.69;97429.19;5036236;28;20203;-72
2022/02/26 00:29:47;;;;;;;2.17;1.30;;;;;;;4.20;86.17;97441.13;5035378;28;20579;-72
2022/02/26 00:32:13;;;;;;;6.33;1.47;;;;;;;3.98;87.38;97440.13;5034711;28;20217;-71
2022/02/26 00:34:41;;;;;;;1.50;1.33;;;;;;;4.01;88.49;97450.34;5035414;28;20206;-72
2022/02/26 00:37:08;;;;;;;2.07;1.67;;;;;;;4.00;88.81;97439.09;5036244;28;20228;-72
2022/02/26 00:39:34;;;;;;;4.43;1.63;;;;;;;3.94;89.60;97444.72;5035921;28;20201;-72
2022/02/26 00:42:01;;;;;;;1.33;1.10;;;;;;;3.88;89.71;97445.16;5038208;28;20227;-72
2022/02/26 00:44:27;;;;;;;1.97;1.80;;;;;;;3.89;90.45;97444.19;5038839;28;20228;-72
2022/02/26 00:46:54;;;;;;;2.10;1.43;;;;;;;3.87;90.68;97443.50;5040118;28;20200;-72
2022/02/26 00:52:07;;;;;;;1.17;1.00;;;;;;;3.98;92.27;97451.38;5039061;28;20223;-72
2022/02/26 00:54:33;;;;;;;1.23;1.13;;;;;;;3.77;92.05;97447.69;5039249;28;20193;-72
2022/02/26 00:57:00;;;;;;;1.77;1.67;;;;;;;3.96;91.65;97444.59;5039222;28;20221;-72
2022/02/26 00:59:26;;;;;;;2.33;1.83;;;;;;;3.80;91.10;97446.63;5039001;28;20220;-72
2022/02/26 01:01:53;;;;;;;4.20;1.33;;;;;;;3.87;91.15;97438.28;5039140;28;20538;-72
2022/02/26 01:04:20;;;;;;;3.07;1.70;;;;;;;3.73;91.48;97451.44;5038549;28;20201;-72
2022/02/26 01:06:46;;;;;;;6.70;1.33;;;;;;;3.78;91.42;97444.13;5039348;28;20193;-72
2022/02/26 01:09:14;;;;;;;1.60;1.10;;;;;;;3.88;91.65;97445.16;5039504;28;20640;-72
2022/02/26 01:11:41;;;;;;;1.30;1.17;;;;;;;3.67;91.85;97445.81;5035920;28;20291;-72
2022/02/26 01:14:07;;;;;;;2.03;1.00;;;;;;;3.35;92.55;97447.19;5038075;28;20748;-72
2022/02/26 01:16:34;;;;;;;2.10;1.50;;;;;;;3.62;92.72;97448.72;5038932;28;20227;-72
2022/02/26 01:19:01;;;;;;;0.70;0.70;;;;;;;3.69;91.85;97450.00;5038971;28;20213;-72
2022/02/26 01:21:27;;;;;;;1.37;1.13;;;;;;;3.54;92.38;97451.97;5038766;28;20788;-72
2022/02/26 01:23:54;;;;;;;1.57;1.40;;;;;;;3.52;92.40;97452.09;5038349;28;20204;-72
2022/02/26 01:26:22;;;;;;;3.30;1.77;;;;;;;3.94;92.00;97457.75;5038897;28;20209;-72
2022/02/26 01:28:49;;;;;;;0.83;0.83;;;;;;;3.80;92.04;97463.09;5038316;28;20201;-72
2022/02/26 01:31:16;;;;;;;3.10;1.40;;;;;;;3.82;91.52;97465.63;5038925;28;20217;-72
2022/02/26 01:33:44;;;;;;;2.30;1.63;;;;;;;3.91;91.07;97471.03;5038197;28;20592;-72
2022/02/26 01:36:11;;;;;;;3.03;2.20;;;;;;;3.79;91.01;97473.63;5037879;28;20666;-72
2022/02/26 01:38:38;;;;;;;8.63;1.37;;;;;;;3.93;90.62;97478.72;5039039;28;20200;-72
2022/02/26 01:41:05;;;;;;;2.40;1.40;;;;;;;4.04;90.43;97484.03;5038697;28;20228;-71
2022/02/26 01:43:34;;;;;;;1.50;1.40;;;;;;;4.08;90.40;97483.72;5037346;28;20197;-72
2022/02/26 01:46:02;;;;;;;2.50;1.10;;;;;;;4.12;89.83;97484.34;5038075;28;20211;-72
2022/02/26 01:48:29;;;;;;;4.20;2.10;;;;;;;3.99;90.59;97486.97;5039355;28;20197;-72
2022/02/26 01:50:56;;;;;;;1.60;1.10;;;;;;;3.96;90.80;97484.56;5038340;28;20726;-72
2022/02/26 01:53:22;;;;;;;2.50;1.53;;;;;;;3.76;90.94;97479.06;5037214;28;20197;-72
2022/02/26 01:55:50;;;;;;;1.37;1.10;;;;;;;3.95;91.32;97485.50;5037708;28;20201;-72
2022/02/26 01:58:17;;;;;;;5.70;1.73;;;;;;;3.95;90.38;97485.50;5039196;28;20491;-72
2022/02/26 02:00:45;;;;;;;1.07;0.90;;;;;;;4.13;90.61;97481.59;5038160;28;20208;-72
2022/02/26 02:03:11;;;;;;;1.40;1.30;;;;;;;3.76;90.64;97492.94;5037314;28;20204;-72
2022/02/26 02:05:38;;;;;;;3.20;2.07;;;;;;;3.69;90.69;97496.91;5038171;28;20216;-72
2022/02/26 02:08:05;;;;;;;2.07;1.73;;;;;;;3.92;90.29;97488.34;5038040;28;20236;-72
2022/02/26 02:10:32;;;;;;;1.70;1.60;;;;;;;4.01;90.34;97492.91;5034201;28;20216;-72
2022/02/26 02:13:00;;;;;;;3.70;1.93;;;;;;;3.95;89.86;97493.31;5037381;28;20204;-72
2022/02/26 02:15:34;;;;;;;2.30;1.67;;;;;;;4.02;90.10;97497.19;5038215;28;20224;-72
2022/02/26 02:18:02;;;;;;;4.03;1.67;;;;;;;3.89;90.52;97501.56;5037531;28;20217;-72
2022/02/26 02:20:29;;;;;;;1.87;1.27;;;;;;;3.74;90.84;97500.03;5037510;28;20205;-72
2022/02/26 02:22:57;;;;;;;1.33;1.13;;;;;;;3.89;91.44;97493.75;5037015;28;20209;-72
2022/02/26 02:25:28;;;;;;;2.67;1.50;;;;;;;3.90;91.08;97495.41;5037639;28;20358;-72
2022/02/26 02:27:55;;;;;;;4.23;2.03;;;;;;;3.90;90.83;97497.22;5038098;28;20551;-72
2022/02/26 02:30:22;;;;;;;17.03;2.03;;;;;;;3.94;90.33;97494.25;5037731;28;20529;-72
2022/02/26 02:32:48;;;;;;;3.93;1.83;;;;;;;3.94;90.12;97491.66;5037010;28;20681;-72
2022/02/26 02:35:29;;;;;;;2.77;1.40;;;;;;;4.22;89.88;97494.00;5037506;28;20209;-72
2022/02/26 02:38:01;;;;;;;3.10;1.60;;;;;;;4.23;89.88;97487.84;5037463;28;20234;-72
2022/02/26 02:40:29;;;;;;;3.17;1.53;;;;;;;4.24;89.31;97489.53;5037644;28;20240;-72
2022/02/26 02:42:56;;;;;;;1.97;1.43;;;;;;;4.12;89.25;97487.75;5036919;28;20212;-72
2022/02/26 02:45:24;;;;;;;4.40;2.37;;;;;;;4.21;89.51;97483.69;5037201;28;20452;-72
2022/02/26 02:47:50;;;;;;;2.33;1.77;;;;;;;4.18;89.36;97482.13;5036754;28;20962;-72
2022/02/26 02:50:18;;;;;;;1.30;1.20;;;;;;;4.21;88.93;97484.50;5037948;28;20207;-72
2022/02/26 02:52:46;;;;;;;2.83;1.73;;;;;;;4.08;89.43;97483.72;5036578;28;20244;-72
2022/02/26 02:55:15;;;;;;;4.87;2.53;;;;;;;4.10;90.38;97486.19;5036667;28;20203;-72
2022/02/26 02:57:41;;;;;;;1.90;1.40;;;;;;;4.05;89.33;97483.94;5036888;28;20232;-72
2022/02/26 03:00:10;;;;;;;1.40;1.30;;;;;;;4.05;89.51;97478.72;5037902;28;20208;-72
2022/02/26 03:02:36;;;;;;;2.67;1.63;;;;;;;3.99;89.64;97488.75;5035767;28;20225;-72
2022/02/26 03:05:04;;;;;;;3.37;1.73;;;;;;;3.97;89.47;97491.47;5036022;28;20208;-72
2022/02/26 03:07:30;;;;;;;2.07;1.50;;;;;;;3.82;90.02;97487.31;5036999;28;20207;-72
2022/02/26 03:09:57;;;;;;;14.90;1.70;;;;;;;3.75;90.35;97496.47;5033346;28;20412;-72
2022/02/26 03:12:25;;;;;;;1.40;1.20;;;;;;;3.82;90.39;97495.13;5035775;28;20221;-72
2022/02/26 03:14:52;;;;;;;7.67;1.77;;;;;;;3.63;90.14;97488.69;5036385;28;20197;-72
2022/02/26 03:17:18;;;;;;;3.73;2.03;;;;;;;3.76;89.87;97494.72;5036759;28;20708;-72
2022/02/26 03:19:49;;;;;;;6.67;1.80;;;;;;;3.74;89.76;97499.19;5036705;28;20601;-72
2022/02/26 03:22:16;;;;;;;3.50;2.00;;;;;;;3.69;89.59;97504.72;5035775;28;20237;-72
2022/02/26 03:24:42;;;;;;;2.57;1.17;;;;;;;3.82;89.27;97507.34;5036751;28;20456;-72
2022/02/26 03:27:09;;;;;;;2.50;1.60;;;;;;;3.73;89.22;97508.78;5036408;28;20197;-72
2022/02/26 03:29:37;;;;;;;5.03;1.80;;;;;;;3.70;89.58;97524.66;5036126;28;20212;-72
2022/02/26 03:32:04;;;;;;;2.43;1.50;;;;;;;3.87;88.77;97516.50;5036611;28;20223;-72
2022/02/26 03:34:31;;;;;;;4.67;2.13;;;;;;;3.57;89.84;97514.31;5032942;28;20568;-72
2022/02/26 03:36:58;;;;;;;4.97;2.33;;;;;;;3.63;90.60;97518.16;5036068;28;20221;-72
2022/02/26 03:39:29;;;;;;;3.83;1.80;;;;;;;3.79;90.60;97515.34;5036759;28;20566;-72
2022/02/26 03:41:55;;;;;;;3.20;1.43;;;;;;;3.62;89.17;97520.06;5035997;28;20713;-72
2022/02/26 03:44:22;;;;;;;5.03;2.00;;;;;;;3.66;89.12;97528.38;5035891;28;20201;-71
2022/02/26 03:46:49;;;;;;;1.77;1.63;;;;;;;3.86;88.85;97514.00;5036301;28;20194;-72
2022/02/26 03:49:16;;;;;;;2.80;1.67;;;;;;;3.64;89.20;97519.84;5036013;28;20580;-72
2022/02/26 03:51:42;;;;;;;2.23;1.83;;;;;;;3.83;88.90;97525.47;5036233;28;20514;-72
2022/02/26 03:54:09;;;;;;;4.30;1.47;;;;;;;3.85;88.33;97528.78;5035422;28;20204;-72
2022/02/26 03:56:35;;;;;;;4.83;2.30;;;;;;;3.76;89.13;97534.63;5035918;28;20197;-72
2022/02/26 03:59:02;;;;;;;1.97;1.50;;;;;;;3.81;88.60;97529.94;5036155;28;20198;-72
2022/02/26 04:01:28;;;;;;;1.83;1.57;;;;;;;3.76;89.47;97539.84;5036468;28;20229;-71
2022/02/26 04:03:56;;;;;;;1.80;1.13;;;;;;;3.91;89.00;97536.22;5035468;28;20201;-71
2022/02/26 04:06:23;;;;;;;1.40;1.23;;;;;;;3.61;89.04;97539.25;5034980;28;20204;-72
2022/02/26 04:08:49;;;;;;;2.10;1.90;;;;;;;3.61;88.88;97540.06;5036602;28;20197;-71
2022/02/26 04:11:16;;;;;;;2.93;1.90;;;;;;;3.56;89.05;97536.09;5034584;28;20217;-71
2022/02/26 04:13:43;;;;;;;2.70;2.13;;;;;;;3.66;89.27;97545.81;5035309;28;20682;-72
2022/02/26 04:16:09;;;;;;;2.17;1.70;;;;;;;3.65;90.05;97550.19;5037475;28;20209;-72
2022/02/26 04:18:36;;;;;;;2.40;1.57;;;;;;;3.70;89.46;97549.88;5039765;28;20594;-72
2022/02/26 04:21:04;;;;;;;2.77;1.50;;;;;;;3.94;89.64;97554.25;5040003;28;20230;-72
2022/02/26 04:23:31;;;;;;;2.37;1.60;;;;;;;3.85;88.71;97554.88;5039807;28;20201;-72
2022/02/26 04:25:57;;;;;;;3.93;1.97;;;;;;;3.83;89.06;97556.75;5039818;28;20283;-72
2022/02/26 04:28:24;;;;;;;1.70;0.80;;;;;;;3.49;90.70;97566.09;5040133;28;20193;-72
2022/02/26 04:30:51;;;;;;;1.73;1.57;;;;;;;3.57;90.96;97558.63;5040079;28;20565;-72
2022/02/26 04:33:18;;;;;;;1.77;1.60;;;;;;;3.67;90.50;97558.72;5039018;28;20197;-72
2022/02/26 04:35:44;;;;;;;2.70;1.23;;;;;;;3.65;89.97;97564.97;5039672;28;20204;-72
2022/02/26 04:38:12;;;;;;;1.17;1.07;;;;;;;3.89;89.89;97576.34;5040050;28;20225;-72
2022/02/26 04:40:38;;;;;;;2.50;1.73;;;;;;;3.72;89.72;97574.88;5039376;28;20662;-72
2022/02/26 04:43:05;;;;;;;4.23;2.23;;;;;;;3.79;89.53;97570.94;5038619;28;20208;-72
2022/02/26 04:45:32;;;;;;;1.43;1.30;;;;;;;3.72;89.53;97563.66;5039647;28;20201;-72
2022/02/26 04:47:58;;;;;;;2.03;1.80;;;;;;;3.62;89.62;97573.00;5039438;28;20197;-72
2022/02/26 04:50:25;;;;;;;2.13;1.60;;;;;;;3.71;89.86;97573.22;5038765;28;21556;-72
2022/02/26 04:52:51;;;;;;;6.17;2.60;;;;;;;3.77;89.63;97575.41;5039218;28;20225;-72
2022/02/26 04:55:19;;;;;;;2.63;2.43;;;;;;;3.93;90.56;97573.41;5040081;28;20400;-72
2022/02/26 04:57:47;;;;;;;4.67;2.17;;;;;;;3.92;89.89;97573.53;5039544;28;20231;-72
2022/02/26 05:00:14;;;;;;;3.60;2.10;;;;;;;4.02;90.16;97585.00;5039940;28;20197;-71
2022/02/26 05:02:41;;;;;;;2.33;1.97;;;;;;;4.07;89.71;97586.34;5038351;28;20236;-72
2022/02/26 05:05:09;;;;;;;3.10;2.17;;;;;;;3.94;90.07;97582.09;5039465;28;20208;-72
2022/02/26 05:07:35;;;;;;;5.37;2.87;;;;;;;3.73;90.99;97579.16;5039209;28;20198;-72
2022/02/26 05:10:02;;;;;;;1.80;1.70;;;;;;;3.82;90.80;97583.75;5035776;28;20200;-72
2022/02/26 05:12:30;;;;;;;2.17;1.40;;;;;;;3.89;90.57;97584.19;5038247;28;20495;-72
2022/02/26 05:14:56;;;;;;;9.17;2.03;;;;;;;3.92;90.22;97597.00;5039463;28;20580;-72
2022/02/26 05:17:23;;;;;;;2.30;1.70;;;;;;;3.90;89.88;97594.50;5038902;28;20232;-72
2022/02/26 05:19:49;;;;;;;7.80;2.70;;;;;;;3.52;91.87;97602.41;5038927;28;20675;-72
2022/02/26 05:22:16;;;;;;;4.50;2.07;;;;;;;3.56;92.33;97611.69;5038367;28;20224;-72
2022/02/26 05:24:42;;;;;;;10.33;2.50;;;;;;;3.53;92.20;97609.28;5039911;28;20208;-72
2022/02/26 05:27:09;;;;;;;5.57;2.97;;;;;;;3.53;91.88;97609.28;5037795;28;20201;-72
2022/02/26 05:29:37;;;;;;;4.37;3.13;;;;;;;3.88;91.32;97604.22;5038682;28;20716;-72
2022/02/26 05:32:04;;;;;;;2.00;1.83;;;;;;;3.95;91.16;97613.28;5039176;28;20225;-72
2022/02/26 05:34:31;;;;;;;5.83;3.00;;;;;;;3.78;91.04;97620.56;5038185;28;20673;-72
2022/02/26 05:36:58;;;;;;;2.30;1.73;;;;;;;3.83;90.65;97621.09;5038373;28;21255;-72
2022/02/26 05:39:24;;;;;;;3.97;2.77;;;;;;;3.92;90.68;97618.72;5039010;28;20208;-72
2022/02/26 05:41:51;;;;;;;6.17;2.33;;;;;;;3.96;89.89;97630.59;5038653;28;20217;-72
2022/02/26 05:44:17;;;;;;;4.00;2.70;;;;;;;3.98;89.63;97623.50;5037781;28;20657;-72
2022/02/26 05:46:45;;;;;;;4.13;2.57;;;;;;;4.12;89.65;97635.63;5038752;28;20217;-72
2022/02/26 05:49:11;;;;;;;6.60;3.13;;;;;;;3.88;90.20;97645.09;5038668;28;20628;-72
2022/02/26 05:51:38;;;;;;;3.53;2.37;;;;;;;4.01;90.06;97644.16;5038107;28;20221;-72
2022/02/26 05:54:04;;;;;;;16.53;2.97;;;;;;;4.01;89.64;97651.16;5037744;28;20761;-72
2022/02/26 05:56:31;;;;;;;7.30;2.60;;;;;;;4.03;89.90;97655.31;5038604;28;20197;-72
2022/02/26 05:58:57;;;;;;;5.10;2.27;;;;;;;3.99;90.20;97659.06;5038097;28;20579;-72
2022/02/26 06:01:24;;;;;;;3.23;2.07;;;;;;;3.97;89.86;97653.16;5037975;28;20221;-72
2022/02/26 06:03:52;;;;;;;11.07;3.23;;;;;;;4.17;89.70;97663.03;5037886;28;21190;-72
2022/02/26 06:06:18;;;;;;;2.53;2.27;;;;;;;4.14;89.17;97665.88;5038144;28;20205;-72
2022/02/26 06:08:45;;;;;;;2.83;2.23;;;;;;;4.12;89.30;97675.56;5037873;28;20292;-72
2022/02/26 06:11:11;;;;;;;7.73;2.37;;;;;;;4.10;89.48;97680.06;5035165;28;20220;-71
2022/02/26 06:13:38;;;;;;;3.47;2.77;;;;;;;4.10;89.11;97685.28;5037943;28;20602;-72
2022/02/26 06:16:05;;;;;;;7.83;2.53;;;;;;;4.16;89.42;97690.06;5038266;28;20577;-72
2022/02/26 06:18:37;;;;;;;4.33;2.17;;;;;;;4.29;89.48;97685.72;5038608;28;20232;-72
2022/02/26 06:21:05;;;;;;;4.03;2.03;;;;;;;4.24;89.56;97698.25;5038330;28;20213;-72
2022/02/26 06:23:32;;;;;;;2.43;2.27;;;;;;;4.17;88.79;97699.56;5037501;28;20232;-72
2022/02/26 06:25:58;;;;;;;7.93;2.10;;;;;;;4.10;89.32;97705.28;5038390;28;20205;-72
2022/02/26 06:28:25;;;;;;;1.33;1.13;;;;;;;4.02;89.77;97708.44;5038158;28;20197;-72
2022/02/26 06:30:51;;;;;;;2.97;2.10;;;;;;;4.10;89.75;97705.28;5038285;28;20221;-72
2022/02/26 06:33:18;;;;;;;5.33;1.83;;;;;;;4.14;89.46;97707.63;5037634;28;20200;-72
2022/02/26 06:35:44;;;;;;;3.00;1.60;;;;;;;4.18;89.88;97708.25;5037828;28;20205;-72
2022/02/26 06:38:13;;;;;;;4.13;2.27;;;;;;;4.30;89.69;97706.47;5037241;28;20236;-72
2022/02/26 06:40:40;;;;;;;2.30;1.70;;;;;;;4.08;89.80;97713.22;5037286;28;20201;-72
2022/02/26 06:43:07;;;;;;;3.30;1.83;;;;;;;4.08;89.64;97712.41;5036505;28;20611;-72
2022/02/26 06:45:34;;;;;;;6.03;2.53;;;;;;;4.18;89.36;97710.88;5037068;28;20430;-71
2022/02/26 06:48:01;;;;;;;4.53;2.47;;;;;;;4.21;89.25;97714.06;5037568;28;20203;-72
2022/02/26 06:50:27;;;;;;;3.13;1.97;;;;;;;4.30;89.43;97718.69;5036897;28;20813;-72
2022/02/26 06:52:54;;;;;;;15.57;3.23;;;;;;;4.31;88.80;97715.97;5034968;28;20826;-72
2022/02/26 06:55:22;;;;;;;3.13;2.03;;;;;;;4.39;89.54;97718.06;5037039;28;20207;-72
2022/02/26 06:57:49;;;;;;;4.90;1.83;;;;;;;4.36;88.81;97718.28;5037041;28;20248;-72
2022/02/26 07:00:16;;;;;;;5.23;2.53;;;;;;;4.35;89.29;97725.28;5036989;28;20205;-72
2022/02/26 07:02:43;;;;;;;5.73;2.10;;;;;;;4.39;88.58;97721.53;5035819;28;20228;-72
2022/02/26 07:05:10;;;;;;;4.87;1.73;;;;;;;4.27;88.94;97727.53;5037336;28;20204;-72
2022/02/26 07:07:37;;;;;;;7.63;2.07;;;;;;;4.18;89.51;97724.72;5036254;28;20208;-72
2022/02/26 07:10:05;;;;;;;2.27;1.97;;;;;;;4.42;89.55;97730.91;5033842;28;20201;-72
2022/02/26 07:12:33;;;;;;;2.47;1.97;;;;;;;4.50;89.35;97731.22;5036763;28;20609;-72
2022/02/26 07:14:59;;;;;;;3.40;2.17;;;;;;;4.41;88.63;97732.66;5036813;28;20563;-72
2022/02/26 07:17:26;;;;;;;6.50;2.07;;;;;;;4.42;88.07;97743.97;5036147;28;20231;-72
2022/02/26 07:19:52;;;;;;;3.20;2.53;;;;;;;4.41;88.44;97750.13;5037295;28;20205;-72
2022/02/26 07:22:19;;;;;;;4.13;2.33;;;;;;;4.46;87.88;97743.63;5035835;28;20671;-72
2022/02/26 07:24:45;;;;;;;9.50;4.37;;;;;;;4.60;85.95;97753.16;5037019;28;20197;-72
2022/02/26 07:27:14;;;;;;;3.43;2.50;;;;;;;4.67;86.11;97746.56;5037150;28;20662;-72
2022/02/26 07:29:41;;;;;;;4.80;2.47;;;;;;;4.69;86.10;97748.13;5035967;28;20202;-72
2022/02/26 07:32:09;;;;;;;5.47;2.00;;;;;;;4.77;86.28;97756.28;5036098;28;20439;-72
2022/02/26 07:34:36;;;;;;;1.90;1.47;;;;;;;4.44;86.58;97755.97;5035898;28;20201;-71
2022/02/26 07:37:02;;;;;;;5.77;3.00;;;;;;;4.37;87.44;97753.88;5036094;28;20205;-72
2022/02/26 07:39:29;;;;;;;3.40;2.40;;;;;;;4.19;87.97;97760.31;5036090;28;20224;-72
2022/02/26 07:41:55;;;;;;;2.67;2.03;;;;;;;4.32;87.62;97754.16;5036268;28;20534;-72
2022/02/26 07:44:22;;;;;;;3.17;2.27;;;;;;;4.00;87.80;97767.69;5035535;28;20216;-72
2022/02/26 07:46:50;;;;;;;2.83;1.87;;;;;;;4.14;88.20;97759.78;5036544;28;20204;-72
2022/02/26 07:49:16;;;;;;;1.97;1.40;;;;;;;4.08;87.53;97759.34;5036299;28;20563;-73
2022/02/26 07:51:43;;;;;;;7.13;1.33;;;;;;;3.96;87.92;97766.22;5036271;28;20248;-73
2022/02/26 07:54:09;;;;;;;8.40;1.80;;;;;;;4.15;86.80;97766.69;5035561;28;20204;-73
2022/02/26 07:56:36;;;;;;;2.17;1.83;;;;;;;3.96;87.54;97771.44;5036288;28;20201;-73
2022/02/26 07:59:02;;;;;;;1.57;1.47;;;;;;;4.10;87.37;97779.19;5036627;28;20976;-73
2022/02/26 08:01:29;;;;;;;2.00;1.73;;;;;;;3.94;87.12;97777.69;5035628;28;20223;-73
2022/02/26 08:03:57;;;;;;;2.90;1.67;;;;;;;4.07;87.85;97788.97;5035318;28;20208;-73
2022/02/26 08:06:23;;;;;;;1.37;1.27;;;;;;;3.94;86.88;97782.91;5036004;28;20204;-73
2022/02/26 08:08:49;;;;;;;2.47;1.30;;;;;;;3.88;86.36;97786.75;5035737;28;20200;-73
2022/02/26 08:11:16;;;;;;;2.23;1.50;;;;;;;3.82;84.42;97784.53;5034171;28;20221;-73
2022/02/26 08:13:43;;;;;;;1.63;1.53;;;;;;;3.90;87.25;97787.47;5035269;28;20216;-72
2022/02/26 08:16:09;;;;;;;5.03;1.77;;;;;;;4.16;85.09;97793.59;5035859;28;20201;-72
2022/02/26 08:18:36;;;;;;;6.77;2.03;;;;;;;4.18;83.19;97797.78;5036248;28;20233;-73
2022/02/26 08:21:04;;;;;;;1.17;1.13;;;;;;;4.44;82.06;97784.69;5035975;28;20736;-73
2022/02/26 08:23:30;;;;;;;2.13;1.60;;;;;;;4.85;80.34;97791.38;5034770;28;20682;-73
2022/02/26 08:25:57;;;;;;;1.70;1.13;;;;;;;4.86;79.88;97792.19;5035951;28;20205;-72
2022/02/26 08:28:23;;;;;;;1.10;1.00;;;;;;;4.32;77.59;97784.66;5036247;28;20200;-73
2022/02/26 08:30:50;;;;;;;2.70;1.00;;;;;;;4.63;71.49;97792.09;5035577;28;20768;-73
2022/02/26 08:33:16;;;;;;;1.60;0.70;;;;;;;4.62;69.09;97787.81;5034926;28;20643;-72
2022/02/26 08:35:43;;;;;;;0.87;0.50;;;;;;;4.54;67.83;97787.50;5035841;28;20263;-73
2022/02/26 08:38:11;;;;;;;2.07;0.50;;;;;;;4.63;61.13;97785.09;5035318;28;20280;-72
2022/02/26 08:40:37;;;;;;;0.63;0.63;;;;;;;4.52;62.04;97791.97;5035458;28;20205;-73
2022/02/26 08:43:03;;;;;;;0.87;0.60;;;;;;;4.77;63.28;97792.81;5035186;28;20197;-73
2022/02/26 08:45:30;;;;;;;5.00;0.70;;;;;;;5.09;66.20;97794.94;5035138;28;20205;-73
2022/02/26 08:47:57;;;;;;;0.40;0.40;;;;;;;5.21;64.44;97793.22;5035625;28;20418;-73
2022/02/26 08:50:23;;;;;;;0.73;0.57;;;;;;;5.00;63.12;97806.00;5035797;28;20661;-73
2022/02/26 08:52:50;;;;;;;0.57;0.57;;;;;;;4.70;65.52;97802.03;5034721;28;20224;-73
2022/02/26 08:55:18;;;;;;;0.83;0.57;;;;;;;4.75;65.62;97805.16;5035307;28;20205;-73
2022/02/26 08:57:44;;;;;;;0.30;0.30;;;;;;;4.57;67.24;97797.72;5035450;28;20201;-73
2022/02/26 09:00:12;;;;;;;1.80;0.50;;;;;;;4.83;65.57;97801.06;5035318;28;20706;-73
2022/02/26 09:02:39;;;;;;;5.10;0.50;;;;;;;4.73;67.61;97798.38;5036704;28;20336;-73
2022/02/26 09:05:07;;;;;;;0.60;0.60;;;;;;;4.36;68.20;97807.81;5038955;28;21104;-73
2022/02/26 09:07:33;;;;;;;3.40;1.03;;;;;;;4.82;69.61;97810.81;5039582;28;20197;-73
2022/02/26 09:10:00;;;;;;;1.10;0.90;;;;;;;4.92;65.49;97802.25;5036242;28;20197;-73
2022/02/26 09:12:28;;;;;;;4.47;1.47;;;;;;;5.51;65.90;97804.97;5038177;28;20220;-73
2022/02/26 09:14:54;;;;;;;0.33;0.33;;;;;;;5.14;64.70;97805.03;5038820;28;20208;-73
2022/02/26 09:17:21;;;;;;;1.40;1.07;;;;;;;5.18;61.95;97801.25;5039063;28;20208;-73
2022/02/26 09:19:47;;;;;;;2.40;0.50;;;;;;;5.12;59.42;97805.16;5039049;28;20223;-73
2022/02/26 09:22:14;;;;;;;0.27;0.27;;;;;;;5.35;60.51;97808.78;5038284;28;20221;-73
2022/02/26 09:24:40;;;;;;;0.30;0.30;;;;;;;4.93;60.24;97815.19;5038780;28;20197;-73
2022/02/26 09:27:07;;;;;;;0.30;0.30;;;;;;;5.28;60.74;97805.75;5038558;28;20320;-73
2022/02/26 09:29:35;;;;;;;0.30;0.30;;;;;;;5.17;62.71;97805.66;5038459;28;20197;-73
2022/02/26 09:32:02;;;;;;;2.03;0.87;;;;;;;5.34;61.73;97802.72;5038658;28;20688;-72
2022/02/26 09:34:29;;;;;;;2.20;0.80;;;;;;;5.07;63.29;97802.00;5037979;28;20284;-74
2022/02/26 09:36:56;;;;;;;0.40;0.40;;;;;;;5.16;66.67;97806.59;5038713;28;20216;-72
2022/02/26 09:39:23;;;;;;;1.40;0.43;;;;;;;5.01;67.08;97806.81;5039202;28;20225;-73
2022/02/26 09:41:51;;;;;;;4.63;1.07;;;;;;;5.16;65.99;97801.38;5037976;28;20220;-73
2022/02/26 09:44:19;;;;;;;0.97;0.60;;;;;;;5.15;65.38;97810.16;5037813;28;20205;-73
2022/02/26 09:46:48;;;;;;;0.30;0.30;;;;;;;5.12;65.41;97805.16;5038640;28;20209;-73
2022/02/26 09:49:14;;;;;;;2.80;1.10;;;;;;;5.13;66.09;97806.81;5038281;28;20197;-73
2022/02/26 09:51:43;;;;;;;0.73;0.73;;;;;;;6.36;73.60;97814.38;5037874;28;20934;-73
2022/02/26 09:54:09;;;;;;;5.07;0.53;;;;;;;6.52;65.07;97799.19;5037413;28;20201;-72
2022/02/26 09:56:37;;;;;;;0.70;0.70;;;;;;;6.57;62.88;97811.00;5038159;28;20212;-72
2022/02/26 09:59:04;;;;;;;2.40;0.80;;;;;;;7.02;60.67;97797.03;5038056;28;20225;-72
2022/02/26 10:01:31;;;;;;;1.00;0.50;;;;;;;7.25;63.23;97801.34;5037854;28;20228;-73
2022/02/26 10:04:10;;;;;;;7.20;0.47;;;;;;;6.44;61.37;97817.25;5037470;28;20772;-73
2022/02/26 10:06:37;;;;;;;1.40;1.03;;;;;;;5.59;62.82;97807.91;5037703;28;20311;-73
2022/02/26 10:09:10;;;;;;;2.37;1.37;;;;;;;5.72;63.94;97812.13;5037930;28;20194;-73
2022/02/26 10:11:38;;;;;;;8.80;0.57;;;;;;;6.04;60.90;97819.34;5034571;28;20239;-73
2022/02/26 10:14:07;;;;;;;0.60;0.60;;;;;;;6.40;58.90;97803.59;5036672;28;20202;-73
2022/02/26 10:16:49;;;;;;;0.20;0.20;;;;;;;5.96;59.11;97809.53;5037880;28;20551;-73
2022/02/26 10:19:22;;;;;;;0.30;0.30;;;;;;;6.25;57.24;97811.72;5037615;28;20621;-73
2022/02/26 10:21:49;;;;;;;1.10;0.73;;;;;;;5.95;60.29;97810.53;5037757;28;20220;-73
2022/02/26 10:24:16;;;;;;;7.80;0.83;;;;;;;5.68;59.00;97820.31;5037013;28;20212;-73
2022/02/26 10:26:48;;;;;;;2.50;0.83;;;;;;;6.02;56.30;97811.72;5037632;28;20603;-73
2022/02/26 10:29:16;;;;;;;1.60;0.60;;;;;;;6.32;58.57;97820.78;5037736;28;20224;-73
2022/02/26 10:31:49;;;;;;;0.30;0.30;;;;;;;6.65;59.60;97816.50;5037149;28;20310;-73
2022/02/26 10:34:32;;;;;;;0.50;0.50;;;;;;;7.05;57.38;97804.66;5037038;28;20952;-73
2022/02/26 10:37:01;;;;;;;0.80;0.70;;;;;;;6.74;55.63;97810.56;5037416;28;20204;-73
2022/02/26 10:39:29;;;;;;;1.10;1.00;;;;;;;7.02;56.62;97800.50;5037347;28;20225;-73
2022/02/26 10:41:56;;;;;;;0.20;0.20;;;;;;;6.18;56.12;97815.75;5037199;28;20232;-73
2022/02/26 10:44:23;;;;;;;7.83;0.40;;;;;;;6.48;55.06;97808.22;5036428;28;20212;-73
2022/02/26 10:46:50;;;;;;;1.03;0.40;;;;;;;6.82;54.46;97808.19;5037082;28;20201;-73
2022/02/26 10:49:18;;;;;;;0.93;0.50;;;;;;;6.84;54.83;97809.75;5037422;28;20208;-73
2022/02/26 10:51:49;;;;;;;2.20;0.30;;;;;;;6.83;55.40;97808.06;5037411;28;20217;-73
2022/02/26 10:54:21;;;;;;;0.43;0.43;;;;;;;6.93;54.54;97806.44;5036713;28;20658;-73
2022/02/26 10:56:47;;;;;;;1.27;1.00;;;;;;;6.74;55.44;97814.00;5036889;28;20197;-73
2022/02/26 10:59:27;;;;;;;0.60;0.40;;;;;;;6.94;56.19;97815.16;5037031;28;20335;-73
2022/02/26 11:02:00;;;;;;;5.50;0.57;;;;;;;6.42;54.92;97814.75;5036645;28;20228;-73
2022/02/26 11:04:26;;;;;;;0.80;0.67;;;;;;;6.29;53.82;97811.38;5036627;28;20236;-73
2022/02/26 11:06:55;;;;;;;0.70;0.70;;;;;;;6.40;54.59;97818.44;5036684;28;20209;-73
2022/02/26 11:09:22;;;;;;;2.63;0.60;;;;;;;6.44;54.35;97812.88;5036240;28;20197;-73
2022/02/26 11:11:50;;;;;;;0.83;0.43;;;;;;;7.02;53.36;97799.66;5033330;28;20224;-73
2022/02/26 11:14:19;;;;;;;9.23;0.43;;;;;;;6.93;53.57;97793.34;5036495;28;20209;-73
2022/02/26 11:16:47;;;;;;;3.70;0.80;;;;;;;7.12;54.07;97798.00;5036610;28;20233;-73
2022/02/26 11:19:15;;;;;;;0.93;0.83;;;;;;;7.11;53.08;97791.09;5036866;28;20221;-73
2022/02/26 11:21:42;;;;;;;0.77;0.77;;;;;;;7.02;53.80;97786.56;5036275;28;20492;-73
2022/02/26 11:24:11;;;;;;;0.50;0.47;;;;;;;6.94;53.57;97789.78;5035741;28;20204;-73
2022/02/26 11:26:38;;;;;;;0.80;0.70;;;;;;;6.61;54.27;97788.88;5036408;28;20357;-73
2022/02/26 11:29:05;;;;;;;2.03;1.03;;;;;;;6.60;52.13;97791.63;5036716;28;20279;-73
2022/02/26 11:31:36;;;;;;;7.27;0.80;;;;;;;7.04;53.87;97782.03;5036393;28;20232;-73
2022/02/26 11:34:03;;;;;;;5.70;0.40;;;;;;;7.09;53.12;97790.38;5035314;28;20205;-73
2022/02/26 11:36:48;;;;;;;0.93;0.43;;;;;;;7.50;50.77;97787.03;5036654;28;20997;-72
2022/02/26 11:39:23;;;;;;;12.83;0.77;;;;;;;7.53;50.65;97785.94;5036981;28;20279;-73
2022/02/26 11:41:50;;;;;;;1.27;0.30;;;;;;;7.55;51.91;97778.81;5036910;28;20221;-73
2022/02/26 11:44:38;;;;;;;2.03;0.60;;;;;;;7.63;51.75;97776.41;5036588;28;20209;-73